Time;durP1;ratioP1;P1;durP2;ratioP2;P2;SDS_P1;SDS_P2;PMS_P1;PMS_P2;Temp;Humidity;BMP_temperature;BMP_pressure;BME280_temperature;BME280_humidity;BME280_pressure;Samples;Min_cycle;Max_cycle;Signal;HPM_P1;HPM_P2
2023/05/20 00:00:58;;;;;;;4.07;1.77;;;12.30;99.90;;;;;;5065492;28;20060;-72
2023/05/20 00:03:23;;;;;;;5.53;3.05;;;12.30;99.90;;;;;;5064116;28;20070;-72
2023/05/20 00:05:49;;;;;;;3.63;1.63;;;12.30;99.90;;;;;;5065116;28;20044;-72
2023/05/20 00:08:18;;;;;;;4.13;1.70;;;12.30;99.90;;;;;;5054119;28;20061;-72
2023/05/20 00:10:43;;;;;;;2.20;1.67;;;12.30;99.90;;;;;;5056080;28;20498;-72
2023/05/20 00:13:09;;;;;;;4.80;2.78;;;12.20;99.90;;;;;;5084375;28;20036;-72
2023/05/20 00:15:35;;;;;;;1.85;1.40;;;12.30;99.90;;;;;;5085103;28;20051;-73
2023/05/20 00:18:01;;;;;;;2.40;1.55;;;12.20;99.90;;;;;;5084873;28;20045;-72
2023/05/20 00:20:27;;;;;;;5.75;1.77;;;12.20;99.90;;;;;;5065616;28;20114;-72
2023/05/20 00:22:52;;;;;;;3.33;1.90;;;12.20;99.90;;;;;;5064300;28;20421;-72
2023/05/20 00:25:18;;;;;;;7.90;2.25;;;12.20;99.90;;;;;;5059340;28;20076;-72
2023/05/20 00:27:43;;;;;;;3.08;1.77;;;12.10;99.90;;;;;;5043867;28;20045;-72
2023/05/20 00:30:10;;;;;;;7.72;2.20;;;12.20;99.90;;;;;;5043843;28;20084;-72
2023/05/20 00:32:36;;;;;;;3.00;1.92;;;12.20;99.90;;;;;;5060332;28;20041;-71
2023/05/20 00:35:02;;;;;;;4.40;1.80;;;12.10;99.90;;;;;;5051140;28;20552;-72
2023/05/20 00:37:28;;;;;;;7.55;3.05;;;12.10;99.90;;;;;;5044224;28;20041;-72
2023/05/20 00:39:54;;;;;;;9.45;2.20;;;12.10;99.90;;;;;;5045677;28;20041;-72
2023/05/20 00:42:28;;;;;;;3.78;1.40;;;12.10;99.90;;;;;;5042183;28;20092;-71
2023/05/20 00:44:54;;;;;;;7.75;2.28;;;12.10;99.90;;;;;;5043061;28;20076;-72
2023/05/20 00:47:25;;;;;;;2.85;1.95;;;12.10;99.90;;;;;;5044840;28;20069;-72
2023/05/20 00:49:51;;;;;;;3.60;1.73;;;12.10;99.90;;;;;;5045470;28;20093;-73
2023/05/20 00:52:17;;;;;;;6.95;2.28;;;12.10;99.90;;;;;;5044599;28;20037;-72
2023/05/20 00:54:44;;;;;;;5.53;1.95;;;12.10;99.90;;;;;;5044351;28;20037;-72
2023/05/20 00:57:10;;;;;;;4.03;1.50;;;12.10;99.90;;;;;;5059580;28;20040;-73
2023/05/20 00:59:37;;;;;;;3.78;2.00;;;12.00;99.90;;;;;;5062830;28;20123;-72
2023/05/20 01:02:05;;;;;;;4.43;1.77;;;12.00;99.90;;;;;;5047617;28;20056;-72
2023/05/20 01:04:32;;;;;;;5.93;2.15;;;12.00;99.90;;;;;;5062229;28;20052;-72
2023/05/20 01:07:03;;;;;;;2.08;1.50;;;12.00;99.90;;;;;;5064059;28;20092;-72
2023/05/20 01:09:30;;;;;;;8.82;1.45;;;12.00;99.90;;;;;;5051028;28;20044;-72
2023/05/20 01:12:21;;;;;;;6.45;2.53;;;12.00;99.90;;;;;;5068429;28;20032;-73
2023/05/20 01:14:59;;;;;;;5.75;2.45;;;12.00;99.90;;;;;;5062396;28;20048;-72
2023/05/20 01:17:26;;;;;;;2.63;1.80;;;12.00;99.90;;;;;;5063243;28;20486;-72
2023/05/20 01:19:53;;;;;;;5.57;2.03;;;11.90;99.90;;;;;;5039230;28;20040;-73
2023/05/20 01:22:27;;;;;;;4.20;2.28;;;11.90;99.90;;;;;;5054568;28;20044;-72
2023/05/20 01:24:53;;;;;;;4.35;2.10;;;11.90;99.90;;;;;;5064344;28;20047;-72
2023/05/20 01:27:21;;;;;;;4.40;1.95;;;11.90;99.90;;;;;;5061512;28;20550;-72
2023/05/20 01:29:49;;;;;;;6.80;2.60;;;11.90;99.90;;;;;;5052299;28;20368;-72
2023/05/20 01:32:40;;;;;;;3.22;2.20;;;11.90;99.90;;;;;;5044100;28;20037;-73
2023/05/20 01:35:06;;;;;;;5.88;2.40;;;11.90;99.90;;;;;;5043545;28;20045;-73
2023/05/20 01:37:37;;;;;;;5.05;3.00;;;11.90;99.90;;;;;;5042485;28;20543;-73
2023/05/20 01:40:04;;;;;;;5.45;2.28;;;11.90;99.90;;;;;;5043696;28;20041;-72
2023/05/20 01:42:30;;;;;;;6.82;2.72;;;11.90;99.90;;;;;;5042415;28;20048;-72
2023/05/20 01:44:58;;;;;;;5.53;1.98;;;11.90;99.90;;;;;;5042394;28;20084;-73
2023/05/20 01:47:23;;;;;;;3.75;1.92;;;11.90;99.90;;;;;;5055462;28;20044;-72
2023/05/20 01:49:51;;;;;;;5.93;2.00;;;11.90;99.90;;;;;;5061767;28;20051;-72
2023/05/20 01:52:17;;;;;;;14.50;2.70;;;11.80;99.90;;;;;;5063374;28;20036;-72
2023/05/20 01:54:49;;;;;;;3.92;2.65;;;11.80;99.90;;;;;;5061821;28;20128;-73
2023/05/20 01:57:16;;;;;;;;;;;11.80;99.90;;;;;;5061967;28;20132;-72
2023/05/20 01:59:42;;;;;;;4.00;2.03;;;11.80;99.90;;;;;;5061783;28;20008;-72
2023/05/20 02:02:07;;;;;;;5.18;2.35;;;11.80;99.90;;;;;;5051529;28;20116;-72
2023/05/20 02:04:33;;;;;;;5.00;2.40;;;11.80;99.90;;;;;;5043210;28;20044;-72
2023/05/20 02:06:58;;;;;;;4.60;2.42;;;11.80;99.90;;;;;;5043278;28;20506;-72
2023/05/20 02:09:24;;;;;;;5.25;2.38;;;11.70;99.90;;;;;;5043727;28;20072;-72
2023/05/20 02:11:49;;;;;;;6.82;2.10;;;11.80;99.90;;;;;;5069875;28;20032;-72
2023/05/20 02:14:15;;;;;;;4.13;2.53;;;11.70;99.90;;;;;;5061095;28;20128;-72
2023/05/20 02:16:40;;;;;;;6.03;1.90;;;11.70;99.90;;;;;;5042881;28;20058;-72
2023/05/20 02:19:11;;;;;;;7.45;2.33;;;11.70;99.90;;;;;;5043217;28;20045;-72
2023/05/20 02:21:40;;;;;;;3.80;1.90;;;11.70;99.90;;;;;;5042538;28;20849;-72
2023/05/20 02:24:06;;;;;;;6.13;2.13;;;11.70;99.90;;;;;;5043049;28;20544;-72
2023/05/20 02:26:33;;;;;;;7.38;2.20;;;11.70;99.90;;;;;;5041720;28;20652;-72
2023/05/20 02:28:59;;;;;;;5.03;2.40;;;11.70;99.90;;;;;;5042804;28;20037;-72
2023/05/20 02:31:24;;;;;;;4.65;2.05;;;11.60;99.90;;;;;;5056989;28;20060;-72
2023/05/20 02:33:50;;;;;;;5.00;2.00;;;11.60;99.90;;;;;;5063081;28;20132;-72
2023/05/20 02:36:16;;;;;;;5.80;2.58;;;11.60;99.90;;;;;;5062551;28;20487;-72
2023/05/20 02:38:42;;;;;;;5.88;2.88;;;11.60;99.90;;;;;;5062567;28;20433;-72
2023/05/20 02:41:07;;;;;;;5.38;2.05;;;11.60;99.90;;;;;;5051989;28;20044;-72
2023/05/20 02:43:35;;;;;;;5.85;2.80;;;11.60;99.90;;;;;;5042725;28;20044;-72
2023/05/20 02:46:01;;;;;;;4.13;2.15;;;11.60;99.90;;;;;;5042268;28;20049;-72
2023/05/20 02:48:27;;;;;;;5.88;2.85;;;11.60;99.90;;;;;;5041492;28;20083;-72
2023/05/20 02:50:52;;;;;;;7.63;2.22;;;11.60;99.90;;;;;;5043324;28;20041;-72
2023/05/20 02:53:18;;;;;;;7.97;2.47;;;11.60;99.90;;;;;;5042623;28;20040;-72
2023/05/20 02:55:48;;;;;;;3.05;2.50;;;11.60;99.90;;;;;;5041587;28;20506;-73
2023/05/20 02:58:14;;;;;;;9.02;2.13;;;11.60;99.90;;;;;;5045387;28;20095;-73
2023/05/20 03:00:40;;;;;;;6.57;2.40;;;11.60;99.90;;;;;;5049565;28;20049;-73
2023/05/20 03:03:07;;;;;;;3.58;1.88;;;11.50;99.90;;;;;;5041239;28;20095;-74
2023/05/20 03:05:36;;;;;;;5.15;1.98;;;11.50;99.90;;;;;;5040864;28;20036;-73
2023/05/20 03:08:03;;;;;;;5.40;2.50;;;11.50;99.90;;;;;;5044487;28;20060;-73
2023/05/20 03:10:28;;;;;;;3.92;2.60;;;11.50;99.90;;;;;;5051875;28;20072;-73
2023/05/20 03:12:54;;;;;;;2.00;1.77;;;11.50;99.90;;;;;;5075855;28;20075;-73
2023/05/20 03:15:20;;;;;;;2.35;1.40;;;11.50;99.90;;;;;;5046729;28;20437;-72
2023/05/20 03:17:45;;;;;;;3.08;1.63;;;11.50;99.90;;;;;;5044930;28;20449;-73
2023/05/20 03:20:12;;;;;;;4.57;2.33;;;11.40;99.90;;;;;;5045000;28;20044;-74
2023/05/20 03:22:37;;;;;;;8.77;2.10;;;11.50;99.90;;;;;;5028219;28;20083;-73
2023/05/20 03:25:04;;;;;;;3.78;2.40;;;11.40;99.90;;;;;;5046057;28;20399;-73
2023/05/20 03:27:30;;;;;;;7.82;2.30;;;11.40;99.90;;;;;;5043848;28;20049;-73
2023/05/20 03:29:56;;;;;;;2.78;1.80;;;11.40;99.90;;;;;;5045929;28;20140;-74
2023/05/20 03:32:22;;;;;;;4.82;1.70;;;11.40;99.90;;;;;;5046297;28;20124;-73
2023/05/20 03:34:47;;;;;;;3.80;1.95;;;11.40;99.90;;;;;;5037232;28;20044;-73
2023/05/20 03:37:13;;;;;;;5.75;2.45;;;11.40;99.90;;;;;;5047820;28;20075;-72
2023/05/20 03:39:38;;;;;;;2.50;1.55;;;11.40;99.90;;;;;;5065425;28;20032;-72
2023/05/20 03:42:04;;;;;;;3.90;2.22;;;11.40;99.90;;;;;;5063653;28;20150;-74
2023/05/20 03:44:30;;;;;;;2.97;2.20;;;11.30;99.90;;;;;;5051222;28;20495;-73
2023/05/20 03:46:55;;;;;;;2.60;1.40;;;11.40;99.90;;;;;;5044569;28;20045;-74
2023/05/20 03:49:22;;;;;;;5.18;1.73;;;11.30;99.90;;;;;;5044766;28;20059;-73
2023/05/20 03:51:47;;;;;;;2.83;1.55;;;11.30;99.90;;;;;;5044290;28;20056;-73
2023/05/20 03:54:15;;;;;;;5.97;1.90;;;11.40;99.90;;;;;;5045906;28;20033;-72
2023/05/20 03:56:41;;;;;;;3.10;1.70;;;11.40;99.90;;;;;;5043004;28;20049;-73
2023/05/20 03:59:06;;;;;;;6.38;1.90;;;11.40;99.90;;;;;;5045709;28;20714;-73
2023/05/20 04:01:32;;;;;;;6.75;1.67;;;11.40;99.90;;;;;;5050029;28;20059;-73
2023/05/20 04:03:58;;;;;;;4.40;2.17;;;11.40;99.90;;;;;;5064049;28;20170;-73
2023/05/20 04:06:23;;;;;;;4.63;2.78;;;11.40;99.90;;;;;;5065687;28;20685;-73
2023/05/20 04:08:49;;;;;;;3.47;1.67;;;11.40;99.90;;;;;;5064879;28;20068;-72
2023/05/20 04:11:15;;;;;;;2.92;1.83;;;11.40;99.90;;;;;;5074429;28;20479;-73
2023/05/20 04:13:41;;;;;;;1.60;1.35;;;11.40;99.90;;;;;;5084977;28;20457;-73
2023/05/20 04:16:07;;;;;;;4.43;1.45;;;11.40;99.90;;;;;;5082008;28;20043;-73
2023/05/20 04:18:32;;;;;;;1.67;1.50;;;11.40;99.90;;;;;;5064559;28;20181;-72
2023/05/20 04:21:00;;;;;;;2.88;1.20;;;11.40;99.90;;;;;;5030290;28;20097;-73
2023/05/20 04:23:26;;;;;;;4.57;1.08;;;11.40;99.90;;;;;;5063475;28;20056;-74
2023/05/20 04:25:51;;;;;;;1.73;0.98;;;11.40;99.90;;;;;;5064574;28;20513;-73
2023/05/20 04:28:17;;;;;;;2.30;1.60;;;11.40;99.90;;;;;;5049166;28;20041;-72
2023/05/20 04:30:44;;;;;;;2.22;1.00;;;11.40;99.90;;;;;;5043044;28;20095;-73
2023/05/20 04:33:10;;;;;;;6.15;1.33;;;11.50;99.90;;;;;;5043933;28;20431;-72
2023/05/20 04:35:36;;;;;;;3.05;1.00;;;11.40;99.90;;;;;;5043464;28;20484;-72
2023/05/20 04:38:02;;;;;;;1.95;1.08;;;11.50;99.90;;;;;;5053958;28;20054;-73
2023/05/20 04:40:28;;;;;;;0.70;0.70;;;11.50;99.90;;;;;;5062220;28;20036;-73
2023/05/20 04:42:54;;;;;;;1.95;1.50;;;11.50;99.90;;;;;;5065027;28;20045;-73
2023/05/20 04:45:22;;;;;;;1.75;1.10;;;11.50;99.90;;;;;;5053166;28;20041;-73
2023/05/20 04:47:47;;;;;;;4.65;1.85;;;11.50;99.90;;;;;;5044356;28;20491;-73
2023/05/20 04:50:13;;;;;;;2.45;1.23;;;11.60;99.90;;;;;;5044710;28;20041;-73
2023/05/20 04:52:40;;;;;;;2.70;1.42;;;11.50;99.90;;;;;;5054620;28;20102;-72
2023/05/20 04:55:09;;;;;;;5.80;1.25;;;11.50;99.90;;;;;;5061985;28;20117;-73
2023/05/20 04:57:35;;;;;;;2.33;1.00;;;11.50;99.90;;;;;;5042936;28;20190;-73
2023/05/20 05:00:01;;;;;;;2.72;1.20;;;11.60;99.90;;;;;;5044817;28;20055;-73
2023/05/20 05:02:26;;;;;;;2.58;0.88;;;11.60;99.90;;;;;;5054980;28;20036;-73
2023/05/20 05:04:52;;;;;;;1.48;0.80;;;11.60;99.90;;;;;;5064659;28;20072;-73
2023/05/20 05:07:17;;;;;;;1.48;1.30;;;11.60;99.90;;;;;;5063939;28;20053;-73
2023/05/20 05:09:43;;;;;;;3.25;1.10;;;11.60;99.90;;;;;;5063596;28;20048;-72
2023/05/20 05:12:09;;;;;;;5.10;1.08;;;11.60;99.90;;;;;;5079019;28;20410;-73
2023/05/20 05:14:34;;;;;;;1.55;1.30;;;11.70;99.90;;;;;;5084023;28;20043;-73
2023/05/20 05:17:00;;;;;;;2.40;0.85;;;11.60;99.90;;;;;;5073926;28;20044;-73
2023/05/20 05:19:25;;;;;;;1.58;1.05;;;11.60;99.90;;;;;;5063806;28;20466;-75
2023/05/20 05:21:51;;;;;;;3.58;0.90;;;11.60;99.90;;;;;;5064828;28;20055;-73
2023/05/20 05:24:17;;;;;;;0.98;0.90;;;11.60;99.90;;;;;;5043026;28;20368;-73
2023/05/20 05:26:42;;;;;;;3.42;1.48;;;11.60;99.90;;;;;;5024193;28;20049;-73
2023/05/20 05:29:09;;;;;;;4.38;1.48;;;11.60;99.90;;;;;;5043688;28;20045;-73
2023/05/20 05:31:34;;;;;;;2.15;0.98;;;11.60;99.90;;;;;;5043474;28;20045;-73
2023/05/20 05:34:00;;;;;;;2.00;1.25;;;11.60;99.90;;;;;;5043552;28;20053;-72
2023/05/20 05:36:25;;;;;;;2.83;1.10;;;11.60;99.90;;;;;;5053887;28;20279;-75
2023/05/20 05:38:51;;;;;;;2.97;0.80;;;11.60;99.90;;;;;;5042938;28;20095;-73
2023/05/20 05:41:17;;;;;;;1.63;0.68;;;11.60;99.90;;;;;;5041051;28;20456;-72
2023/05/20 05:43:42;;;;;;;0.77;0.57;;;11.60;99.90;;;;;;5041714;28;20476;-73
2023/05/20 05:46:08;;;;;;;2.00;0.85;;;11.70;99.90;;;;;;5043360;28;20040;-73
2023/05/20 05:48:35;;;;;;;2.20;0.88;;;11.80;99.90;;;;;;5043100;28;20080;-73
2023/05/20 05:51:01;;;;;;;1.30;0.77;;;11.80;99.90;;;;;;5043103;28;20810;-73
2023/05/20 05:53:26;;;;;;;1.83;0.93;;;11.90;99.90;;;;;;5041651;28;20041;-73
2023/05/20 05:55:52;;;;;;;0.90;0.63;;;11.90;99.90;;;;;;5042657;28;20083;-73
2023/05/20 05:58:17;;;;;;;1.58;1.10;;;12.00;99.90;;;;;;5045603;28;20040;-73
2023/05/20 06:00:43;;;;;;;1.52;0.73;;;12.00;99.90;;;;;;5063209;28;20033;-73
2023/05/20 06:03:09;;;;;;;0.95;0.70;;;12.10;99.90;;;;;;5062964;28;20509;-73
2023/05/20 06:05:34;;;;;;;1.55;0.50;;;12.00;99.90;;;;;;5058952;28;20395;-74
2023/05/20 06:08:00;;;;;;;1.67;0.60;;;12.10;99.90;;;;;;5041551;28;20157;-73
2023/05/20 06:10:25;;;;;;;1.30;1.00;;;12.10;99.90;;;;;;5047419;28;20082;-75
2023/05/20 06:12:51;;;;;;;1.50;0.80;;;12.10;99.90;;;;;;5069991;28;20487;-73
2023/05/20 06:15:17;;;;;;;2.63;0.80;;;12.10;99.90;;;;;;5061132;28;20048;-72
2023/05/20 06:17:42;;;;;;;0.90;0.90;;;12.20;99.90;;;;;;5056304;28;20032;-74
2023/05/20 06:20:08;;;;;;;1.27;0.80;;;12.20;99.90;;;;;;5041738;28;20040;-74
2023/05/20 06:22:34;;;;;;;1.10;1.00;;;12.30;99.90;;;;;;5041868;28;20162;-73
2023/05/20 06:25:01;;;;;;;0.95;0.75;;;12.40;99.90;;;;;;5036044;28;20056;-73
2023/05/20 06:27:27;;;;;;;3.13;1.13;;;12.50;99.90;;;;;;5063199;28;20086;-74
2023/05/20 06:29:53;;;;;;;1.55;0.80;;;12.50;99.90;;;;;;5057153;28;20086;-74
2023/05/20 06:32:18;;;;;;;0.98;0.95;;;12.60;99.90;;;;;;5057731;28;20044;-73
2023/05/20 06:34:44;;;;;;;2.13;0.82;;;12.50;99.90;;;;;;5061670;28;20048;-73
2023/05/20 06:37:10;;;;;;;0.50;0.50;;;12.60;99.90;;;;;;5062343;28;20535;-73
2023/05/20 06:39:36;;;;;;;0.95;0.65;;;12.60;99.90;;;;;;5061382;28;20099;-74
2023/05/20 06:42:01;;;;;;;1.20;0.70;;;12.60;99.90;;;;;;5060923;28;20568;-73
2023/05/20 06:44:27;;;;;;;0.80;0.52;;;12.70;99.90;;;;;;5065361;28;20376;-73
2023/05/20 06:46:53;;;;;;;0.32;0.30;;;12.70;99.90;;;;;;5058628;28;20040;-74
2023/05/20 06:49:18;;;;;;;0.85;0.70;;;12.80;99.90;;;;;;5050712;28;20402;-73
2023/05/20 06:51:44;;;;;;;2.40;0.90;;;12.80;99.90;;;;;;5054503;28;20479;-72
2023/05/20 06:54:09;;;;;;;2.58;0.60;;;12.90;99.90;;;;;;5053807;28;20520;-74
2023/05/20 06:56:35;;;;;;;1.90;0.70;;;12.90;99.90;;;;;;5057001;28;20044;-76
2023/05/20 06:59:01;;;;;;;2.75;0.60;;;12.90;99.90;;;;;;5061718;28;20325;-75
2023/05/20 07:01:26;;;;;;;0.70;0.60;;;13.00;99.90;;;;;;5063775;28;20109;-77
2023/05/20 07:03:52;;;;;;;0.75;0.50;;;13.10;99.90;;;;;;5066453;28;20086;-78
2023/05/20 07:06:17;;;;;;;0.63;0.60;;;13.10;99.90;;;;;;5065030;28;20113;-78
2023/05/20 07:08:43;;;;;;;1.23;0.70;;;13.20;99.90;;;;;;5048061;28;20056;-79
2023/05/20 07:11:09;;;;;;;0.63;0.63;;;13.20;99.90;;;;;;5068113;28;20116;-78
2023/05/20 07:13:34;;;;;;;1.00;0.57;;;13.30;99.90;;;;;;5064384;28;20148;-78
2023/05/20 07:16:00;;;;;;;3.40;0.73;;;13.30;99.90;;;;;;5061405;28;20491;-77
2023/05/20 07:18:27;;;;;;;1.05;0.60;;;13.30;99.90;;;;;;5064706;28;20054;-80
2023/05/20 07:20:52;;;;;;;0.75;0.50;;;13.30;99.90;;;;;;5066574;28;20093;-78
2023/05/20 07:23:18;;;;;;;1.50;0.82;;;13.40;99.90;;;;;;5065697;28;20048;-80
2023/05/20 07:25:44;;;;;;;1.33;0.70;;;13.40;99.90;;;;;;5063737;28;20037;-77
2023/05/20 07:28:11;;;;;;;0.85;0.65;;;13.50;99.90;;;;;;5065786;28;20040;-78
2023/05/20 07:30:36;;;;;;;1.00;0.60;;;13.50;99.90;;;;;;5065728;28;20036;-80
2023/05/20 07:33:02;;;;;;;1.65;0.80;;;13.50;99.90;;;;;;5047698;28;20056;-78
2023/05/20 07:35:27;;;;;;;1.08;0.63;;;13.60;99.90;;;;;;5064318;28;20072;-78
2023/05/20 07:37:53;;;;;;;1.13;0.73;;;13.60;99.90;;;;;;5043924;28;20472;-79
2023/05/20 07:40:19;;;;;;;1.08;0.63;;;13.70;99.90;;;;;;5064160;28;20396;-79
2023/05/20 07:42:44;;;;;;;1.27;1.17;;;13.70;99.90;;;;;;5043708;28;20037;-79
2023/05/20 07:45:10;;;;;;;1.00;0.88;;;13.70;99.90;;;;;;5064378;28;20040;-79
2023/05/20 07:47:36;;;;;;;2.75;1.23;;;13.80;99.90;;;;;;5064083;28;20120;-79
2023/05/20 07:50:02;;;;;;;2.60;0.63;;;13.80;99.90;;;;;;5064130;28;20049;-78
2023/05/20 07:52:28;;;;;;;1.92;0.75;;;13.80;99.90;;;;;;5064140;28;20715;-79
2023/05/20 07:54:53;;;;;;;2.10;0.60;;;13.90;99.90;;;;;;5046979;28;20041;-78
2023/05/20 07:57:19;;;;;;;2.17;0.65;;;13.90;99.90;;;;;;5055880;28;20101;-78
2023/05/20 07:59:45;;;;;;;1.33;0.65;;;13.90;99.90;;;;;;5063380;28;20166;-77
2023/05/20 08:02:10;;;;;;;1.13;1.08;;;14.00;99.90;;;;;;5043670;28;20044;-78
2023/05/20 08:04:36;;;;;;;1.17;0.70;;;14.00;99.90;;;;;;5059721;28;20047;-80
2023/05/20 08:07:02;;;;;;;1.80;0.90;;;14.00;99.90;;;;;;5052954;28;20052;-78
2023/05/20 08:09:27;;;;;;;0.98;0.82;;;14.10;99.90;;;;;;5060178;28;20069;-78
2023/05/20 08:11:53;;;;;;;2.55;1.25;;;14.10;99.90;;;;;;5065906;28;20033;-78
2023/05/20 08:14:18;;;;;;;1.75;0.65;;;14.10;99.90;;;;;;5064506;28;20048;-78
2023/05/20 08:16:44;;;;;;;1.60;0.70;;;14.20;99.90;;;;;;5062659;28;20550;-77
2023/05/20 08:19:10;;;;;;;0.57;0.57;;;14.20;99.90;;;;;;5064412;28;20048;-77
2023/05/20 08:21:36;;;;;;;0.70;0.70;;;14.20;99.90;;;;;;5063481;28;20123;-74
2023/05/20 08:24:01;;;;;;;2.03;0.90;;;14.30;99.90;;;;;;5064699;28;20036;-74
2023/05/20 08:26:27;;;;;;;1.73;1.10;;;14.30;99.90;;;;;;5060650;28;20618;-73
2023/05/20 08:28:53;;;;;;;0.73;0.70;;;14.30;99.90;;;;;;5064289;28;20044;-74
2023/05/20 08:31:19;;;;;;;1.10;0.70;;;14.30;99.90;;;;;;5063860;28;20049;-75
2023/05/20 08:33:44;;;;;;;1.60;0.98;;;14.30;99.90;;;;;;5057708;28;20606;-74
2023/05/20 08:36:10;;;;;;;1.13;0.98;;;14.40;99.90;;;;;;5048705;28;20036;-73
2023/05/20 08:38:35;;;;;;;2.20;0.77;;;14.40;99.90;;;;;;5048546;28;20052;-73
2023/05/20 08:41:01;;;;;;;2.20;0.55;;;14.40;99.90;;;;;;5050221;28;20052;-73
2023/05/20 08:43:29;;;;;;;1.38;0.73;;;14.50;99.90;;;;;;5055188;28;20044;-73
2023/05/20 08:45:55;;;;;;;0.57;0.57;;;14.50;99.90;;;;;;5051371;28;20041;-73
2023/05/20 08:48:24;;;;;;;3.28;0.50;;;14.50;99.90;;;;;;5054971;28;20062;-73
2023/05/20 08:50:51;;;;;;;1.42;0.77;;;14.50;99.90;;;;;;5063616;28;20051;-75
2023/05/20 08:53:17;;;;;;;0.98;0.52;;;14.60;99.90;;;;;;5049813;28;20398;-74
2023/05/20 08:55:56;;;;;;;1.00;0.70;;;14.60;99.90;;;;;;5055614;28;20049;-73
2023/05/20 08:58:23;;;;;;;0.50;0.50;;;14.60;99.90;;;;;;5051762;28;20032;-73
2023/05/20 09:00:50;;;;;;;2.20;0.80;;;14.60;99.90;;;;;;5059057;28;20102;-73
2023/05/20 09:03:15;;;;;;;3.78;0.60;;;14.60;99.90;;;;;;5057632;28;20083;-74
2023/05/20 09:05:41;;;;;;;2.13;0.73;;;14.70;99.90;;;;;;5053664;28;20071;-73
2023/05/20 09:08:08;;;;;;;1.25;0.80;;;14.60;99.90;;;;;;5058562;28;20084;-73
2023/05/20 09:10:35;;;;;;;1.80;0.70;;;14.70;99.90;;;;;;5057065;28;20093;-74
2023/05/20 09:13:03;;;;;;;2.97;0.70;;;14.70;99.90;;;;;;5057589;28;20094;-74
2023/05/20 09:15:29;;;;;;;0.40;0.40;;;14.80;99.90;;;;;;5055487;28;20068;-74
2023/05/20 09:17:58;;;;;;;1.08;0.80;;;14.80;99.90;;;;;;5060482;28;20071;-76
2023/05/20 09:20:24;;;;;;;2.97;0.50;;;14.80;99.90;;;;;;5055849;28;20068;-75
2023/05/20 09:22:54;;;;;;;0.80;0.60;;;14.80;99.90;;;;;;5057975;28;20386;-75
2023/05/20 09:25:21;;;;;;;1.70;0.60;;;14.80;99.90;;;;;;5055361;28;20072;-75
2023/05/20 09:27:48;;;;;;;1.98;0.75;;;14.80;99.90;;;;;;5060241;28;20402;-74
2023/05/20 09:30:17;;;;;;;1.08;0.63;;;14.80;99.90;;;;;;5054065;28;20162;-74
2023/05/20 09:32:43;;;;;;;2.28;0.88;;;14.90;99.90;;;;;;5062201;28;20044;-74
2023/05/20 09:35:12;;;;;;;0.60;0.52;;;14.90;99.90;;;;;;5061632;28;20036;-74
2023/05/20 09:37:41;;;;;;;0.88;0.73;;;14.90;99.90;;;;;;5049553;28;20069;-74
2023/05/20 09:40:10;;;;;;;0.77;0.73;;;14.90;99.90;;;;;;5040673;28;20372;-74
2023/05/20 09:42:49;;;;;;;1.17;0.98;;;15.00;99.90;;;;;;5059724;28;20080;-73
2023/05/20 09:45:15;;;;;;;0.40;0.40;;;15.00;99.90;;;;;;5052833;28;20036;-74
2023/05/20 09:47:42;;;;;;;1.73;0.68;;;15.00;99.90;;;;;;5037403;28;20530;-74
2023/05/20 09:50:08;;;;;;;1.75;0.88;;;15.10;99.90;;;;;;5031257;28;20047;-75
2023/05/20 09:52:37;;;;;;;0.60;0.60;;;15.10;99.90;;;;;;5061148;28;20040;-75
2023/05/20 09:55:05;;;;;;;2.17;0.80;;;15.10;99.90;;;;;;5058820;28;20037;-77
2023/05/20 09:57:34;;;;;;;1.40;0.90;;;15.10;99.90;;;;;;5061475;28;20045;-76
2023/05/20 10:00:00;;;;;;;3.40;1.10;;;15.20;99.90;;;;;;5061941;28;20434;-78
2023/05/20 10:02:27;;;;;;;9.25;1.38;;;15.20;99.90;;;;;;5061427;28;20045;-72
2023/05/20 10:04:55;;;;;;;2.78;0.77;;;15.30;99.90;;;;;;5057363;28;20491;-72
2023/05/20 10:07:41;;;;;;;2.08;0.77;;;15.30;99.90;;;;;;5053454;28;20454;-73
2023/05/20 10:10:24;;;;;;;0.80;0.80;;;15.30;99.90;;;;;;5052157;28;20045;-74
2023/05/20 10:12:58;;;;;;;3.33;1.13;;;15.30;99.90;;;;;;5068675;28;20090;-74
2023/05/20 10:15:47;;;;;;;2.22;1.15;;;15.30;99.90;;;;;;5058138;28;20127;-75
2023/05/20 10:18:29;;;;;;;2.28;1.08;;;15.40;99.90;;;;;;5074364;28;20037;-72
2023/05/20 10:20:55;;;;;;;1.08;0.68;;;15.30;99.90;;;;;;5048635;28;20055;-73
2023/05/20 10:23:21;;;;;;;1.75;0.90;;;15.40;99.90;;;;;;5046339;28;20052;-74
2023/05/20 10:25:55;;;;;;;1.40;0.82;;;15.40;99.90;;;;;;5042701;28;20480;-76
2023/05/20 10:28:35;;;;;;;1.23;1.02;;;15.50;99.90;;;;;;5044454;28;20032;-75
2023/05/20 10:31:02;;;;;;;0.80;0.80;;;15.50;99.90;;;;;;5061908;28;20048;-75
2023/05/20 10:33:28;;;;;;;1.33;0.98;;;15.50;99.90;;;;;;5039147;28;20060;-77
2023/05/20 10:35:58;;;;;;;2.20;0.90;;;15.50;99.90;;;;;;5051153;28;20045;-78
2023/05/20 10:38:25;;;;;;;2.22;0.93;;;15.50;99.90;;;;;;5066645;28;20677;-74
2023/05/20 10:40:51;;;;;;;1.58;1.08;;;15.60;99.90;;;;;;5072483;28;20048;-74
2023/05/20 10:43:27;;;;;;;1.90;1.05;;;15.60;99.90;;;;;;5060047;28;20044;-73
2023/05/20 10:45:54;;;;;;;2.67;1.02;;;15.60;99.90;;;;;;5070443;28;20052;-74
2023/05/20 10:48:24;;;;;;;1.45;0.80;;;15.60;99.90;;;;;;5059442;28;20044;-74
2023/05/20 10:50:55;;;;;;;4.38;1.38;;;15.70;99.90;;;;;;5052660;28;20390;-74
2023/05/20 10:53:22;;;;;;;1.65;0.90;;;15.60;99.90;;;;;;5068863;28;20040;-74
2023/05/20 10:55:50;;;;;;;0.80;0.80;;;15.70;99.90;;;;;;5068508;28;20040;-74
2023/05/20 10:58:16;;;;;;;5.45;1.20;;;15.70;99.90;;;;;;5067310;28;20055;-73
2023/05/20 11:00:42;;;;;;;3.50;1.38;;;15.70;99.90;;;;;;5059950;28;20040;-73
2023/05/20 11:03:11;;;;;;;4.00;1.05;;;15.70;99.90;;;;;;5063971;28;20037;-74
2023/05/20 11:05:38;;;;;;;5.47;1.10;;;15.70;99.90;;;;;;5061275;28;20696;-74
2023/05/20 11:08:07;;;;;;;2.08;0.85;;;15.80;99.90;;;;;;5060670;28;20127;-74
2023/05/20 11:10:33;;;;;;;2.08;1.08;;;15.70;99.90;;;;;;5059865;28;20056;-77
2023/05/20 11:13:00;;;;;;;1.90;1.05;;;15.80;99.90;;;;;;5063989;28;20048;-75
2023/05/20 11:15:26;;;;;;;1.80;1.13;;;15.90;99.90;;;;;;5044271;28;20398;-75
2023/05/20 11:17:54;;;;;;;3.28;1.40;;;15.90;99.90;;;;;;5062548;28;20047;-75
2023/05/20 11:20:23;;;;;;;1.75;1.05;;;15.80;99.90;;;;;;5060030;28;20068;-75
2023/05/20 11:22:53;;;;;;;1.23;0.93;;;15.90;99.90;;;;;;5059588;28;20141;-73
2023/05/20 11:25:20;;;;;;;2.92;1.13;;;15.90;99.90;;;;;;5057728;28;20259;-73
2023/05/20 11:27:46;;;;;;;1.38;1.15;;;15.90;99.90;;;;;;5058401;28;20040;-73
2023/05/20 11:30:16;;;;;;;5.13;1.65;;;15.90;99.90;;;;;;5045773;28;20045;-73
2023/05/20 11:32:59;;;;;;;2.45;0.88;;;15.90;99.90;;;;;;5063297;28;20044;-73
2023/05/20 11:35:28;;;;;;;2.55;0.88;;;16.00;99.90;;;;;;5080077;28;20065;-72
2023/05/20 11:38:02;;;;;;;4.00;1.15;;;16.00;99.90;;;;;;5083819;28;20123;-72
2023/05/20 11:40:28;;;;;;;2.22;1.25;;;16.00;99.90;;;;;;5082312;28;20043;-72
2023/05/20 11:42:55;;;;;;;1.85;0.95;;;16.00;99.90;;;;;;5064061;28;20072;-72
2023/05/20 11:45:21;;;;;;;1.10;1.00;;;16.10;99.90;;;;;;5063190;28;20044;-72
2023/05/20 11:48:01;;;;;;;1.70;1.10;;;16.00;99.90;;;;;;5062054;28;20123;-73
2023/05/20 11:50:32;;;;;;;4.60;1.00;;;16.10;99.90;;;;;;5062997;28;20048;-71
2023/05/20 11:52:59;;;;;;;3.42;1.00;;;16.10;99.90;;;;;;5046485;28;20048;-72
2023/05/20 11:55:26;;;;;;;1.38;1.17;;;16.10;99.90;;;;;;5063504;28;20040;-72
2023/05/20 11:57:51;;;;;;;4.78;1.45;;;16.10;99.90;;;;;;5063709;28;20049;-72
2023/05/20 12:00:17;;;;;;;4.18;1.67;;;16.20;99.90;;;;;;5063094;28;20106;-72
2023/05/20 12:02:46;;;;;;;2.35;1.00;;;16.10;99.90;;;;;;5062749;28;20032;-72
2023/05/20 12:05:12;;;;;;;1.92;1.10;;;16.20;99.90;;;;;;5063004;28;20040;-72
2023/05/20 12:07:38;;;;;;;8.32;1.40;;;16.20;99.90;;;;;;5064268;28;20045;-72
2023/05/20 12:10:04;;;;;;;3.28;1.10;;;16.30;99.90;;;;;;5062867;28;20067;-72
2023/05/20 12:12:30;;;;;;;2.78;1.63;;;16.20;99.90;;;;;;5043651;28;20060;-72
2023/05/20 12:14:56;;;;;;;5.72;1.27;;;16.30;99.90;;;;;;5026511;28;20373;-73
2023/05/20 12:17:21;;;;;;;2.72;1.40;;;16.30;99.90;;;;;;5044459;28;20053;-72
2023/05/20 12:19:47;;;;;;;1.98;1.35;;;16.30;99.90;;;;;;5043411;28;20348;-72
2023/05/20 12:22:12;;;;;;;1.10;0.98;;;16.30;99.90;;;;;;5042502;28;20037;-72
2023/05/20 12:24:38;;;;;;;4.13;1.25;;;16.40;99.90;;;;;;5043177;28;20051;-72
2023/05/20 12:27:05;;;;;;;1.92;1.25;;;16.40;99.90;;;;;;5043632;28;20068;-72
2023/05/20 12:29:31;;;;;;;1.88;1.40;;;16.40;99.90;;;;;;5043899;28;20080;-72
2023/05/20 12:31:56;;;;;;;2.22;1.20;;;16.40;99.90;;;;;;5042462;28;20041;-72
2023/05/20 12:34:22;;;;;;;2.30;1.30;;;16.40;99.90;;;;;;5044129;28;20044;-71
2023/05/20 12:36:48;;;;;;;3.72;1.13;;;16.40;99.90;;;;;;5043647;28;20049;-72
2023/05/20 12:39:16;;;;;;;3.67;1.48;;;16.40;99.90;;;;;;5042390;28;20041;-72
2023/05/20 12:41:42;;;;;;;1.98;1.23;;;16.40;99.90;;;;;;5041331;28;20095;-72
2023/05/20 12:44:08;;;;;;;2.65;1.00;;;16.40;99.90;;;;;;5044058;28;21023;-72
2023/05/20 12:46:34;;;;;;;4.68;1.60;;;16.40;99.90;;;;;;5042158;28;20079;-72